Startpagina
METAR-TAF:

METAR-TAF

Vliegvelden :

Luxeuil-les-Bains, Frankrijk

breedte: 47-47N, lengte: 006-21E, hoogte: 278 m

Actueel weer

Dit bericht is 30 minuten geleden gemaakt, om 20:30 UTC
Weinig wind
Temperatuur 0°C
Vochtigheid 93%
Druk 1023 hPa
Zicht: 7000 m

METAR: LFSX 242030Z AUTO 00000KT 7000 NSC M00/M01 Q1023

Tijdstip: 22:00 (21:00 UTC)

Verwachting

Dit bericht is 7 uur en het 29 minuten geleden gemaakt, om 13:31 UTC
Verwachting geldig van 24 om 13 UTC tot 25 om 09 UTC
Wind 4 kt uit het oosten
Zicht: 7000 m
Kans 40% :
Tijdelijke
van 24 om 18 UTC tot 25 om 09 UTC
Zicht: 4000 m
nevel

TAF: LFSX 241331Z 2413/2509 10004KT 7000 NSC PROB40 TEMPO 2418/2509 4000 BR

Waarnemingen en weersverwachtingen van meer dan 4000 vliegvelden (METAR en TAF).

De beschikbare stations zijn de gele en rode punten op de kaart.

Ga met uw muis naar het station om de naam te zien.

Klik dan om waarnemingen en weersverwachtingen te zien.

kaart wijzigen: klik op de groene knoppen met een zwart kruis om in te zoomen, op de groene knop met een streepje om uit te zoomen of op de groene pijlen voor aangrenzende kaarten.


METAR-TAF: